Time;durP1;ratioP1;P1;durP2;ratioP2;P2;SDS_P1;SDS_P2;PMS_P1;PMS_P2;Temp;Humidity;BMP_temperature;BMP_pressure;BME280_temperature;BME280_humidity;BME280_pressure;Samples;Min_cycle;Max_cycle;Signal;HPM_P1;HPM_P2
2021/12/14 00:00:48;;;;;;;11.52;8.93;;;;;;;7.78;100.00;102591.91;6218934;23;20000;-62
2021/12/14 00:03:15;;;;;;;12.13;9.30;;;;;;;7.80;100.00;102599.72;6218816;23;20040;-63
2021/12/14 00:05:42;;;;;;;10.95;8.68;;;;;;;7.77;100.00;102602.28;6219005;23;20008;-62
2021/12/14 00:08:12;;;;;;;11.98;8.45;;;;;;;7.75;100.00;102590.94;6218964;23;20004;-62
2021/12/14 00:13:44;;;;;;;12.95;9.25;;;;;;;7.74;100.00;102595.25;6229162;23;20012;-62
2021/12/14 00:16:00;;;;;;;10.55;8.35;;;;;;;7.73;100.00;102587.41;6218080;23;20013;-63
2021/12/14 00:18:27;;;;;;;11.88;8.82;;;;;;;7.75;100.00;102590.94;6219094;23;20004;-62
2021/12/14 00:20:58;;;;;;;12.88;8.73;;;;;;;7.72;100.00;102588.25;6219499;23;20009;-62
2021/12/14 00:26:13;;;;;;;13.23;8.88;;;;;;;7.72;100.00;102591.72;6218236;23;20420;-62
2021/12/14 00:28:39;;;;;;;13.55;8.85;;;;;;;7.75;100.00;102589.22;6218890;23;20005;-62
2021/12/14 00:31:09;;;;;;;11.88;8.57;;;;;;;7.71;100.00;102589.09;6218713;23;20008;-62
2021/12/14 00:33:36;;;;;;;12.73;8.88;;;;;;;7.74;100.00;102595.25;6218322;23;20414;-62
2021/12/14 00:36:06;;;;;;;11.55;8.82;;;;;;;7.67;100.00;102588.13;6218309;23;20398;-62
2021/12/14 00:38:35;;;;;;;13.45;8.75;;;;;;;7.77;100.00;102597.97;6219102;23;20027;-64
2021/12/14 00:41:11;;;;;;;13.18;8.93;;;;;;;7.71;100.00;102602.13;6218820;23;20051;-62
2021/12/14 00:43:36;;;;;;;14.90;9.77;;;;;;;7.66;100.00;102610.69;6219098;23;20008;-62
2021/12/14 00:46:03;;;;;;;13.98;9.27;;;;;;;7.63;100.00;102610.59;6218630;23;20004;-62
2021/12/14 00:48:29;;;;;;;14.30;9.73;;;;;;;7.64;100.00;102622.78;6218670;23;20004;-62
2021/12/14 00:50:57;;;;;;;12.43;9.10;;;;;;;7.66;100.00;102628.91;6218168;23;20079;-62
2021/12/14 00:53:22;;;;;;;12.13;9.48;;;;;;;7.65;100.00;102626.28;6218243;23;20298;-63
2021/12/14 00:55:50;;;;;;;14.80;9.90;;;;;;;7.69;100.00;102635.94;6218608;23;20004;-62
2021/12/14 00:58:17;;;;;;;13.60;9.23;;;;;;;7.70;100.00;102645.53;6218940;23;20018;-62
2021/12/14 01:00:52;;;;;;;13.07;9.50;;;;;;;7.67;100.00;102637.63;6218993;23;20082;-62
2021/12/14 01:03:17;;;;;;;12.65;9.68;;;;;;;7.65;100.00;102637.56;6218471;23;20035;-63
2021/12/14 01:05:47;;;;;;;14.43;10.07;;;;;;;7.65;100.00;102640.19;6218374;23;20005;-63
2021/12/14 01:08:17;;;;;;;15.55;9.85;;;;;;;7.67;100.00;102638.50;6218375;23;20012;-62
2021/12/14 01:10:54;;;;;;;13.63;9.88;;;;;;;7.60;100.00;102626.19;6218301;23;20008;-62
2021/12/14 01:13:24;;;;;;;14.13;10.32;;;;;;;7.61;100.00;102616.63;6218323;23;20009;-62
2021/12/14 01:16:49;;;;;;;14.85;9.93;;;;;;;7.70;100.00;102611.66;6218206;23;20008;-62
2021/12/14 01:19:19;;;;;;;13.48;9.65;;;;;;;7.62;100.00;102618.38;6184788;23;20009;-63
2021/12/14 01:25:00;;;;;;;13.35;9.23;;;;;;;7.58;100.00;102620.03;6228348;23;20028;-62
2021/12/14 01:27:26;;;;;;;16.23;9.57;;;;;;;7.64;100.00;102620.19;6218041;23;20012;-62
2021/12/14 01:29:54;;;;;;;15.77;10.80;;;;;;;7.63;100.00;102613.19;6218437;23;20008;-63
2021/12/14 01:32:23;;;;;;;13.95;9.65;;;;;;;7.67;100.00;102593.31;6217602;23;20394;-62
2021/12/14 01:34:49;;;;;;;16.20;9.93;;;;;;;7.61;100.00;102607.09;6217790;23;20008;-62
2021/12/14 01:37:19;;;;;;;14.63;10.18;;;;;;;7.57;100.00;102599.16;6217846;23;20236;-63
2021/12/14 01:42:25;;;;;;;12.65;9.73;;;;;;;7.64;100.00;102593.25;6217983;23;20021;-62
2021/12/14 01:45:13;;;;;;;12.68;9.38;;;;;;;7.58;100.00;102591.38;6217956;23;20004;-62
2021/12/14 01:47:49;;;;;;;16.10;9.50;;;;;;;7.62;100.00;102597.53;6217602;23;20035;-62
2021/12/14 01:50:31;;;;;;;13.05;9.07;;;;;;;7.59;100.00;102593.16;6217575;23;20418;-62
2021/12/14 01:52:58;;;;;;;13.68;9.27;;;;;;;7.56;100.00;102600.88;6218025;23;20083;-62
2021/12/14 01:55:29;;;;;;;11.48;8.35;;;;;;;7.58;100.00;102603.53;6217874;23;20004;-62
2021/12/14 01:57:56;;;;;;;11.63;8.40;;;;;;;7.49;100.00;102583.28;6217481;23;20004;-63
2021/12/14 02:00:33;;;;;;;11.43;7.82;;;;;;;7.43;100.00;102561.44;6217672;23;20019;-62
2021/12/14 02:03:01;;;;;;;13.18;7.85;;;;;;;7.51;100.00;102573.81;6217892;23;20015;-62
2021/12/14 02:05:30;;;;;;;10.02;7.07;;;;;;;7.50;100.00;102564.22;6217807;23;20005;-62
2021/12/14 02:07:59;;;;;;;9.52;6.78;;;;;;;7.59;100.00;102584.44;6217271;23;20487;-62
2021/12/14 02:10:33;;;;;;;10.43;6.97;;;;;;;7.56;100.00;102563.50;6218818;23;20006;-62
2021/12/14 02:12:59;;;;;;;10.07;6.90;;;;;;;7.58;100.00;102552.28;6217474;23;20286;-62
2021/12/14 02:15:29;;;;;;;11.77;6.88;;;;;;;7.54;100.00;102559.97;6217289;23;20011;-63
2021/12/14 02:17:57;;;;;;;9.73;6.60;;;;;;;7.50;100.00;102572.03;6217733;23;20091;-62
2021/12/14 02:20:32;;;;;;;10.23;6.28;;;;;;;7.48;100.00;102550.28;6217680;23;20004;-62
2021/12/14 02:22:59;;;;;;;9.88;6.32;;;;;;;7.48;100.00;102567.63;6217476;23;20037;-62
2021/12/14 02:25:25;;;;;;;9.02;6.35;;;;;;;7.52;100.00;102572.09;6217607;23;20088;-63
2021/12/14 02:27:52;;;;;;;11.93;6.65;;;;;;;7.46;100.00;102566.69;6217571;23;20084;-62
2021/12/14 02:30:23;;;;;;;11.38;6.10;;;;;;;7.48;100.00;102565.03;6217692;23;20023;-62
2021/12/14 02:32:48;;;;;;;9.98;6.18;;;;;;;7.45;100.00;102572.75;6217905;23;20076;-63
2021/12/14 02:35:18;;;;;;;9.32;5.95;;;;;;;7.43;100.00;102561.44;6217407;23;20042;-62
2021/12/14 02:37:46;;;;;;;10.00;6.93;;;;;;;7.48;100.00;102567.63;6217412;23;20083;-63
2021/12/14 02:40:53;;;;;;;10.18;6.60;;;;;;;7.42;100.00;102570.09;6217195;23;20059;-62
2021/12/14 02:43:10;;;;;;;10.30;6.97;;;;;;;7.41;100.00;102583.94;6217052;23;20016;-62
2021/12/14 02:45:35;;;;;;;10.65;6.57;;;;;;;7.40;100.00;102588.28;6218010;23;20012;-62
2021/12/14 02:48:07;;;;;;;9.20;6.28;;;;;;;7.41;100.00;102586.56;6216871;23;20049;-63
2021/12/14 02:50:32;;;;;;;9.05;6.05;;;;;;;7.41;100.00;102578.72;6217562;23;20004;-62
2021/12/14 02:52:58;;;;;;;10.00;6.25;;;;;;;7.40;100.00;102590.88;6217764;23;20004;-62
2021/12/14 02:55:27;;;;;;;8.63;5.85;;;;;;;7.41;100.00;102587.44;6217694;23;20009;-62
2021/12/14 02:57:57;;;;;;;10.02;6.30;;;;;;;7.40;100.00;102579.56;6217502;23;20008;-63
2021/12/14 03:00:35;;;;;;;10.35;6.15;;;;;;;7.40;100.00;102564.84;6217383;23;20283;-62
2021/12/14 03:03:03;;;;;;;10.02;6.35;;;;;;;7.38;100.00;102550.88;6217719;23;20013;-62
2021/12/14 03:05:33;;;;;;;10.82;5.95;;;;;;;7.40;100.00;102548.31;6217916;23;20005;-62
2021/12/14 03:08:14;;;;;;;8.15;5.65;;;;;;;7.45;100.00;102558.00;6217508;23;20020;-62
2021/12/14 03:10:56;;;;;;;10.60;6.05;;;;;;;7.37;100.00;102558.66;6217457;23;20012;-62
2021/12/14 03:13:25;;;;;;;10.25;5.93;;;;;;;7.37;100.00;102558.66;6217239;23;20023;-63
2021/12/14 03:15:55;;;;;;;10.57;5.82;;;;;;;7.39;100.00;102544.84;6217507;23;20004;-63
2021/12/14 03:18:27;;;;;;;10.30;6.32;;;;;;;7.39;100.00;102536.13;6217072;23;20283;-62
2021/12/14 03:21:01;;;;;;;10.98;6.40;;;;;;;7.40;100.00;102540.50;6218844;23;20036;-63
2021/12/14 03:23:35;;;;;;;10.77;6.38;;;;;;;7.33;100.00;102519.50;6219292;23;20008;-63
2021/12/14 03:26:06;;;;;;;10.88;6.50;;;;;;;7.38;100.00;102527.44;6219312;23;20008;-62
2021/12/14 03:28:32;;;;;;;11.07;6.55;;;;;;;7.38;100.00;102523.97;6219340;23;20009;-62
2021/12/14 03:31:10;;;;;;;12.45;7.65;;;;;;;7.32;100.00;102535.97;6219308;23;20004;-62
2021/12/14 03:33:41;;;;;;;12.85;7.35;;;;;;;7.28;100.00;102525.41;6219312;23;20359;-62
2021/12/14 03:36:12;;;;;;;11.95;7.40;;;;;;;7.30;100.00;102526.34;6219091;23;20008;-63
2021/12/14 03:38:48;;;;;;;11.60;7.63;;;;;;;7.37;100.00;102535.22;6219683;23;20000;-63
2021/12/14 03:41:23;;;;;;;13.13;8.02;;;;;;;7.32;100.00;102528.16;6219010;23;20013;-62
2021/12/14 03:44:06;;;;;;;12.25;7.93;;;;;;;7.28;100.00;102525.41;6218930;23;20004;-63
2021/12/14 03:46:36;;;;;;;13.68;8.60;;;;;;;7.27;100.00;102523.69;6218989;23;20069;-63
2021/12/14 03:49:04;;;;;;;14.40;8.70;;;;;;;7.25;100.00;102530.56;6219501;23;20020;-62
2021/12/14 03:51:29;;;;;;;15.07;8.70;;;;;;;7.24;100.00;102540.09;6219536;23;20322;-62
2021/12/14 03:53:57;;;;;;;13.93;9.25;;;;;;;7.23;100.00;102555.69;6218989;23;20020;-62
2021/12/14 03:56:23;;;;;;;14.77;9.52;;;;;;;7.22;100.00;102556.50;6218869;23;20028;-62
2021/12/14 03:58:49;;;;;;;14.45;8.98;;;;;;;7.24;100.00;102581.75;6218798;23;20079;-64
2021/12/14 04:01:22;;;;;;;17.25;9.50;;;;;;;7.13;100.00;102567.53;6218567;23;20677;-62
2021/12/14 04:03:51;;;;;;;15.88;9.80;;;;;;;7.27;100.00;102580.97;6218883;23;20089;-62
2021/12/14 04:06:17;;;;;;;15.95;10.23;;;;;;;7.26;100.00;102580.09;6219223;23;20008;-62
2021/12/14 04:08:43;;;;;;;16.95;10.13;;;;;;;7.26;100.00;102587.91;6218711;23;20012;-62
2021/12/14 04:11:10;;;;;;;15.50;10.00;;;;;;;7.14;100.00;102571.91;6218829;23;20403;-62
2021/12/14 04:13:40;;;;;;;15.85;9.98;;;;;;;7.26;100.00;102594.81;6219096;23;20032;-63
2021/12/14 04:16:07;;;;;;;17.83;11.07;;;;;;;7.32;100.00;102593.25;6219230;23;20066;-62
2021/12/14 04:18:32;;;;;;;16.98;10.63;;;;;;;7.28;100.00;102590.50;6218955;23;20015;-62
2021/12/14 04:21:00;;;;;;;18.33;10.95;;;;;;;7.32;100.00;102584.56;6218892;23;20004;-62
2021/12/14 04:23:29;;;;;;;19.65;10.82;;;;;;;7.27;100.00;102575.75;6218763;23;20008;-62
2021/12/14 04:25:58;;;;;;;17.02;10.63;;;;;;;7.30;100.00;102573.22;6218423;23;20430;-62
2021/12/14 04:28:30;;;;;;;17.05;11.05;;;;;;;7.33;100.00;102581.13;6218561;23;20019;-62
2021/12/14 04:30:56;;;;;;;18.35;11.90;;;;;;;7.26;100.00;102590.50;6218227;23;20075;-62
2021/12/14 04:33:33;;;;;;;17.48;11.32;;;;;;;7.25;100.00;102586.13;6218678;23;20036;-62
2021/12/14 04:36:04;;;;;;;18.52;11.02;;;;;;;7.19;100.00;102569.44;6218626;23;20012;-62
2021/12/14 04:38:32;;;;;;;19.60;11.50;;;;;;;7.21;100.00;102567.75;6218222;23;20015;-63
2021/12/14 04:52:04;;;;;;;20.52;12.07;;;;;;;7.26;100.00;102564.47;6218210;23;20034;-62
2021/12/14 04:54:43;;;;;;;22.15;12.35;;;;;;;7.25;100.00;102557.47;6218750;23;20032;-62
2021/12/14 04:57:32;;;;;;;21.38;12.32;;;;;;;7.28;100.00;102548.84;6218513;23;20032;-62
2021/12/14 05:00:13;;;;;;;22.02;13.05;;;;;;;7.23;100.00;102558.28;6218388;23;20318;-62
2021/12/14 05:02:39;;;;;;;23.48;13.32;;;;;;;7.18;100.00;102555.53;6218568;23;20008;-62
2021/12/14 05:05:05;;;;;;;20.67;13.15;;;;;;;7.22;100.00;102557.41;6218803;23;20011;-62
2021/12/14 05:10:01;;;;;;;23.20;13.20;;;;;;;7.20;100.00;102556.47;6218295;23;20009;-62
2021/12/14 05:12:29;;;;;;;21.73;13.80;;;;;;;7.18;100.00;102560.75;6218420;23;20000;-62
2021/12/14 05:14:58;;;;;;;20.33;12.48;;;;;;;7.18;100.00;102550.34;6218129;23;20012;-63
2021/12/14 05:17:28;;;;;;;22.92;13.13;;;;;;;7.21;100.00;102542.63;6218276;23;20012;-62
2021/12/14 05:19:55;;;;;;;22.67;12.95;;;;;;;7.18;100.00;102542.53;6217958;23;20004;-62
2021/12/14 05:22:25;;;;;;;22.25;12.85;;;;;;;7.22;100.00;102546.97;6218603;23;20005;-63
2021/12/14 05:24:56;;;;;;;24.02;13.38;;;;;;;7.14;100.00;102526.75;6218377;23;20087;-62
2021/12/14 05:27:27;;;;;;;23.42;13.93;;;;;;;7.16;100.00;102538.09;6217826;23;20066;-62
2021/12/14 05:30:00;;;;;;;25.85;13.18;;;;;;;7.19;100.00;102556.41;6218300;23;20004;-62
2021/12/14 05:32:27;;;;;;;23.25;13.95;;;;;;;7.20;100.00;102547.78;6218230;23;20012;-62
2021/12/14 05:34:52;;;;;;;23.85;14.00;;;;;;;7.24;100.00;102550.50;6217323;23;20394;-62
2021/12/14 05:37:28;;;;;;;25.02;13.50;;;;;;;7.14;100.00;102542.38;6218136;23;20020;-62
2021/12/14 05:40:06;;;;;;;23.67;14.02;;;;;;;7.19;100.00;102551.22;6217833;23;20016;-63
2021/12/14 05:45:21;;;;;;;27.25;14.50;;;;;;;7.18;100.00;102550.34;6217557;23;20031;-63
2021/12/14 05:47:50;;;;;;;25.73;14.05;;;;;;;7.21;100.00;102555.63;6218528;23;20028;-62
2021/12/14 05:50:21;;;;;;;27.10;15.02;;;;;;;7.18;100.00;102562.47;6217843;23;20082;-62
2021/12/14 05:52:47;;;;;;;24.97;14.50;;;;;;;7.16;100.00;102556.34;6217943;23;20015;-62
2021/12/14 05:55:14;;;;;;;27.80;15.18;;;;;;;7.12;100.00;102555.34;6217459;23;20004;-62
2021/12/14 05:57:39;;;;;;;28.58;14.70;;;;;;;7.11;100.00;102553.59;6217997;23;20149;-62
2021/12/14 06:00:09;;;;;;;28.38;15.00;;;;;;;7.13;100.00;102548.44;6217671;23;20449;-63
2021/12/14 06:02:38;;;;;;;27.95;15.13;;;;;;;7.18;100.00;102552.94;6217678;23;20078;-62
2021/12/14 06:05:10;;;;;;;29.08;15.73;;;;;;;7.14;100.00;102563.22;6217812;23;20087;-62
2021/12/14 06:07:35;;;;;;;28.53;15.27;;;;;;;7.11;100.00;102570.94;6217998;23;20009;-62
2021/12/14 06:10:00;;;;;;;27.92;15.90;;;;;;;7.12;100.00;102578.78;6217462;23;20300;-62
2021/12/14 06:12:31;;;;;;;28.73;15.80;;;;;;;7.18;100.00;102565.94;6217604;23;20004;-63
2021/12/14 06:14:59;;;;;;;31.67;16.35;;;;;;;7.12;100.00;102573.56;6217804;23;20268;-62
2021/12/14 06:17:36;;;;;;;28.27;16.02;;;;;;;7.10;100.00;102580.47;6217801;23;20009;-62
2021/12/14 06:20:11;;;;;;;29.20;16.48;;;;;;;7.13;100.00;102580.56;6217676;23;20413;-62
2021/12/14 06:22:39;;;;;;;31.58;17.05;;;;;;;7.12;100.00;102588.31;6218074;23;20088;-62
2021/12/14 06:25:10;;;;;;;30.65;16.77;;;;;;;7.10;100.00;102583.06;6217443;23;20314;-63
2021/12/14 06:27:36;;;;;;;30.77;16.27;;;;;;;7.07;100.00;102583.00;6217406;23;20004;-63
2021/12/14 06:30:13;;;;;;;34.85;17.33;;;;;;;7.13;100.00;102590.97;6217364;23;20004;-63
2021/12/14 06:32:45;;;;;;;31.73;17.02;;;;;;;7.13;100.00;102585.75;6218313;23;20011;-61
2021/12/14 06:35:15;;;;;;;33.72;17.67;;;;;;;7.11;100.00;102587.44;6217858;23;20147;-63
2021/12/14 06:41:12;;;;;;;30.92;16.63;;;;;;;7.14;100.00;102579.72;6217935;23;20016;-63
2021/12/14 06:43:48;;;;;;;33.78;17.27;;;;;;;7.14;100.00;102589.25;6197503;23;20009;-63
2021/12/14 06:46:17;;;;;;;34.88;17.20;;;;;;;7.12;100.00;102591.81;6217669;23;20080;-63
2021/12/14 06:48:48;;;;;;;34.55;17.25;;;;;;;7.13;100.00;102598.78;6217939;23;20020;-63
2021/12/14 06:51:25;;;;;;;32.08;16.83;;;;;;;7.19;100.00;102592.88;6217187;23;20394;-61
2021/12/14 06:53:58;;;;;;;33.42;17.70;;;;;;;7.15;100.00;102599.69;6217446;23;20012;-64
2021/12/14 06:56:26;;;;;;;33.95;17.77;;;;;;;7.09;100.00;102602.16;6217411;23;20062;-62
2021/12/14 06:58:54;;;;;;;32.47;17.20;;;;;;;7.12;100.00;102611.75;6215877;23;20287;-65
2021/12/14 07:01:41;;;;;;;37.63;18.38;;;;;;;7.00;100.00;102588.84;6217143;23;19997;-65
2021/12/14 07:04:11;;;;;;;35.67;18.02;;;;;;;6.99;100.00;102598.38;6216969;23;20087;-65
2021/12/14 07:06:51;;;;;;;36.17;18.25;;;;;;;7.00;100.00;102596.66;6216614;23;20008;-66
2021/12/14 07:09:23;;;;;;;35.80;17.80;;;;;;;7.11;100.00;102613.47;6216839;23;20004;-64
2021/12/14 07:11:57;;;;;;;37.03;19.23;;;;;;;7.12;100.00;102617.84;6216588;23;20011;-63
2021/12/14 07:14:50;;;;;;;35.63;18.50;;;;;;;7.13;100.00;102613.50;6217043;23;20033;-64
2021/12/14 07:17:26;;;;;;;37.10;19.20;;;;;;;7.13;100.00;102617.00;6216654;23;20013;-64
2021/12/14 07:20:11;;;;;;;36.58;19.25;;;;;;;7.14;100.00;102630.91;6217014;23;20079;-64
2021/12/14 07:22:41;;;;;;;37.63;18.80;;;;;;;7.13;100.00;102639.53;6217117;23;20008;-64
2021/12/14 07:25:27;;;;;;;35.85;18.90;;;;;;;7.11;100.00;102636.91;6217143;23;20000;-63
2021/12/14 07:27:58;;;;;;;37.30;19.15;;;;;;;7.10;100.00;102640.34;6216284;23;20008;-64
2021/12/14 07:30:24;;;;;;;36.58;18.95;;;;;;;7.14;100.00;102646.53;6216693;23;20454;-64
2021/12/14 07:33:10;;;;;;;36.50;19.90;;;;;;;7.17;100.00;102650.09;6217063;23;20059;-64
2021/12/14 07:35:49;;;;;;;41.15;19.83;;;;;;;7.12;100.00;102650.78;6216862;23;20008;-64
2021/12/14 07:38:14;;;;;;;35.90;19.13;;;;;;;7.13;100.00;102653.44;6217116;23;20075;-64
2021/12/14 07:40:42;;;;;;;40.90;19.80;;;;;;;7.16;100.00;102650.94;6217312;23;20106;-64
2021/12/14 07:43:14;;;;;;;38.60;20.40;;;;;;;7.12;100.00;102648.19;6217283;23;20008;-64
2021/12/14 07:45:40;;;;;;;37.63;19.42;;;;;;;7.11;100.00;102652.50;6216760;23;20418;-64
2021/12/14 07:48:05;;;;;;;37.58;20.05;;;;;;;7.22;100.00;102656.34;6216921;23;20019;-64
2021/12/14 07:50:57;;;;;;;39.63;20.63;;;;;;;7.19;100.00;102655.34;6216920;23;20356;-65
2021/12/14 07:53:40;;;;;;;42.38;20.38;;;;;;;7.10;100.00;102650.75;6212599;23;20004;-64
2021/12/14 07:56:05;;;;;;;41.35;20.02;;;;;;;7.13;100.00;102678.59;6216857;23;20298;-64
2021/12/14 07:58:35;;;;;;;40.65;20.95;;;;;;;7.10;100.00;102668.13;6217040;23;20019;-64
2021/12/14 08:01:00;;;;;;;39.60;20.40;;;;;;;7.12;100.00;102677.72;6216737;23;20004;-64
2021/12/14 08:03:32;;;;;;;38.60;20.88;;;;;;;7.13;100.00;102682.09;6216706;23;20020;-64
2021/12/14 08:05:57;;;;;;;40.83;20.40;;;;;;;7.19;100.00;102687.47;6217432;23;20425;-63
2021/12/14 08:08:33;;;;;;;39.33;19.95;;;;;;;7.15;100.00;102689.94;6218711;23;20005;-63
2021/12/14 08:11:27;;;;;;;38.00;20.42;;;;;;;7.12;100.00;102676.81;6218357;23;20009;-63
2021/12/14 08:13:53;;;;;;;41.00;20.98;;;;;;;7.20;100.00;102686.66;6218169;23;20426;-63
2021/12/14 08:16:19;;;;;;;39.53;21.05;;;;;;;7.22;100.00;102684.97;6218247;23;20413;-63
2021/12/14 08:18:46;;;;;;;43.78;21.27;;;;;;;7.15;100.00;102679.53;6218675;23;20009;-63
2021/12/14 08:21:19;;;;;;;40.78;21.10;;;;;;;7.23;100.00;102689.34;6218524;23;20017;-63
2021/12/14 08:24:01;;;;;;;39.50;20.85;;;;;;;7.18;100.00;102675.31;6218264;23;20031;-64
2021/12/14 08:26:49;;;;;;;41.55;20.92;;;;;;;7.24;100.00;102688.50;6217698;23;20008;-64
2021/12/14 08:29:18;;;;;;;40.33;20.58;;;;;;;7.21;100.00;102683.22;6217914;23;20458;-63
2021/12/14 08:31:51;;;;;;;43.80;22.23;;;;;;;7.24;100.00;102685.91;6218762;23;20009;-64
2021/12/14 08:34:21;;;;;;;40.13;21.30;;;;;;;7.25;100.00;102687.69;6218465;23;20011;-64
2021/12/14 08:36:53;;;;;;;40.40;20.77;;;;;;;7.26;100.00;102689.44;6218870;23;20005;-57
2021/12/14 08:39:27;;;;;;;43.88;23.13;;;;;;;7.30;100.00;102688.69;6215519;23;20005;-64
2021/12/14 08:42:07;;;;;;;42.10;21.58;;;;;;;7.32;100.00;102689.59;6218312;23;20374;-64
2021/12/14 08:44:37;;;;;;;39.42;21.23;;;;;;;7.34;100.00;102682.72;6218454;23;20019;-64
2021/12/14 08:47:06;;;;;;;43.22;21.75;;;;;;;7.37;100.00;102699.28;6218167;23;20013;-64
2021/12/14 08:49:31;;;;;;;41.88;21.63;;;;;;;7.30;100.00;102680.84;6218392;23;20058;-64
2021/12/14 08:51:57;;;;;;;41.55;22.10;;;;;;;7.34;100.00;102692.25;6218137;23;20004;-64
2021/12/14 08:54:27;;;;;;;40.97;21.30;;;;;;;7.35;100.00;102683.59;6218534;23;20011;-64
2021/12/14 08:57:01;;;;;;;42.00;21.20;;;;;;;7.38;100.00;102694.13;6218621;23;20004;-64
2021/12/14 08:59:28;;;;;;;44.55;23.05;;;;;;;7.40;100.00;102696.78;6218239;23;20008;-64
2021/12/14 09:01:54;;;;;;;43.28;22.13;;;;;;;7.43;100.00;102702.97;6218025;23;20398;-64
2021/12/14 09:04:24;;;;;;;44.38;22.55;;;;;;;7.48;100.00;102706.56;6217990;23;20036;-64
2021/12/14 09:06:57;;;;;;;40.53;21.33;;;;;;;7.50;100.00;102707.50;6218116;23;20008;-64
2021/12/14 09:09:23;;;;;;;42.30;22.02;;;;;;;7.50;100.00;102709.22;6218291;23;20012;-64
2021/12/14 09:12:00;;;;;;;46.10;22.52;;;;;;;7.56;100.00;102709.41;6218266;23;20012;-64
2021/12/14 09:14:26;;;;;;;41.63;22.00;;;;;;;7.59;100.00;102707.78;6218391;23;20005;-63
2021/12/14 09:16:54;;;;;;;41.47;21.58;;;;;;;7.63;100.00;102706.13;6217912;23;20012;-64
2021/12/14 09:19:31;;;;;;;43.55;22.20;;;;;;;7.73;100.00;102704.66;6217914;23;20059;-62
2021/12/14 09:22:02;;;;;;;41.88;22.77;;;;;;;7.70;100.00;102715.88;6218419;23;20031;-63
2021/12/14 09:24:31;;;;;;;42.93;22.17;;;;;;;7.77;100.00;102717.84;6217608;23;20016;-63
2021/12/14 09:27:09;;;;;;;46.33;24.00;;;;;;;7.79;100.00;102713.56;6218253;23;20035;-63
2021/12/14 09:29:35;;;;;;;44.03;22.45;;;;;;;7.82;100.00;102715.34;6218300;23;20009;-62
2021/12/14 09:32:07;;;;;;;43.90;23.25;;;;;;;7.86;100.00;102707.66;6218105;23;20016;-62
2021/12/14 09:34:37;;;;;;;41.88;21.75;;;;;;;7.91;100.00;102713.88;6218009;23;20001;-62
2021/12/14 09:37:04;;;;;;;45.78;23.33;;;;;;;7.89;100.00;102697.31;6217822;23;20087;-63
2021/12/14 09:39:35;;;;;;;40.75;21.83;;;;;;;8.09;100.00;102704.78;6218228;23;20074;-62
2021/12/14 09:42:08;;;;;;;41.85;22.15;;;;;;;7.99;100.00;102701.03;6218042;23;20043;-62
2021/12/14 09:44:38;;;;;;;42.45;22.55;;;;;;;8.02;100.00;102709.84;6217591;23;20413;-63
2021/12/14 09:47:18;;;;;;;44.92;22.60;;;;;;;8.07;100.00;102711.69;6217695;23;20103;-62
2021/12/14 09:49:47;;;;;;;46.20;23.60;;;;;;;7.99;100.00;102704.53;6217875;23;20012;-63
2021/12/14 09:52:20;;;;;;;47.05;22.83;;;;;;;7.93;100.00;102700.91;6217846;23;20004;-63
2021/12/14 09:54:48;;;;;;;46.28;24.02;;;;;;;7.90;100.00;102699.09;6217798;23;20016;-62
2021/12/14 09:57:20;;;;;;;43.47;22.40;;;;;;;7.89;100.00;102686.00;6217114;23;20084;-62
2021/12/14 09:59:51;;;;;;;45.85;23.73;;;;;;;7.92;100.00;102688.69;6217813;23;20039;-64
2021/12/14 10:02:24;;;;;;;43.05;23.00;;;;;;;7.91;100.00;102680.00;6217427;23;20402;-63
2021/12/14 10:04:57;;;;;;;49.90;23.50;;;;;;;8.06;100.00;102689.06;6217482;23;20110;-62
2021/12/14 10:07:23;;;;;;;47.80;23.95;;;;;;;7.94;100.00;102687.03;6217672;23;20004;-63
2021/12/14 10:09:52;;;;;;;47.15;25.35;;;;;;;7.96;100.00;102685.34;6217737;23;20016;-62
2021/12/14 10:12:49;;;;;;;49.53;24.58;;;;;;;8.09;100.00;102689.16;6217653;23;20008;-64
2021/12/14 10:15:33;;;;;;;44.15;23.40;;;;;;;8.15;100.00;102694.50;6216839;23;20282;-63
2021/12/14 10:18:12;;;;;;;47.72;23.33;;;;;;;8.21;100.00;102692.94;6217621;23;20004;-63
2021/12/14 10:20:49;;;;;;;51.83;24.75;;;;;;;8.26;100.00;102698.28;6217671;23;20011;-63
2021/12/14 10:23:19;;;;;;;46.67;23.95;;;;;;;8.24;100.00;102694.75;6217463;23;20004;-63
2021/12/14 10:25:46;;;;;;;47.88;23.30;;;;;;;8.32;100.00;102701.06;6217192;23;20012;-63
2021/12/14 10:28:12;;;;;;;44.58;23.30;;;;;;;8.37;100.00;102692.53;6217409;23;20009;-63
2021/12/14 10:30:45;;;;;;;46.70;23.73;;;;;;;8.45;100.00;102702.28;6217567;23;20012;-63
2021/12/14 10:33:12;;;;;;;42.75;23.45;;;;;;;8.49;100.00;102698.88;6217161;23;20088;-64
2021/12/14 10:35:46;;;;;;;46.50;23.88;;;;;;;8.55;100.00;102699.03;6217498;23;20016;-64
2021/12/14 10:38:28;;;;;;;45.38;24.10;;;;;;;8.56;99.06;102700.81;6217635;23;20437;-64
2021/12/14 10:43:44;;;;;;;43.40;23.63;;;;;;;8.51;99.57;102705.03;6216695;23;20123;-64
2021/12/14 10:46:23;;;;;;;44.72;23.35;;;;;;;8.58;99.84;102712.19;6217674;23;20012;-64
2021/12/14 10:48:49;;;;;;;46.10;24.08;;;;;;;8.57;99.75;102713.91;6217737;23;20008;-64
2021/12/14 10:51:18;;;;;;;44.90;23.45;;;;;;;8.62;99.61;102714.03;6217580;23;20001;-60
2021/12/14 10:53:47;;;;;;;46.53;24.55;;;;;;;8.60;99.84;102711.38;6217316;23;20008;-65
2021/12/14 10:56:18;;;;;;;46.47;23.67;;;;;;;8.65;98.82;102707.16;6217410;23;20008;-65
2021/12/14 10:58:46;;;;;;;49.05;24.33;;;;;;;8.66;98.35;102703.66;6217060;23;20004;-65
2021/12/14 11:01:26;;;;;;;46.95;24.60;;;;;;;8.60;98.84;102697.44;6217108;23;20397;-65
2021/12/14 11:03:56;;;;;;;48.97;24.95;;;;;;;8.58;99.76;102696.53;6217227;23;20012;-64
2021/12/14 11:06:28;;;;;;;52.65;24.85;;;;;;;8.61;99.79;102694.88;6217357;23;20035;-63
2021/12/14 11:09:38;;;;;;;50.20;25.40;;;;;;;8.64;99.65;102700.16;6217840;23;20013;-64
2021/12/14 11:11:58;;;;;;;48.08;24.65;;;;;;;8.67;99.19;102686.28;6216990;23;20012;-64
2021/12/14 11:14:34;;;;;;;48.08;24.55;;;;;;;8.60;99.35;102681.78;6217494;23;20004;-64
2021/12/14 11:19:51;;;;;;;54.80;26.27;;;;;;;8.75;98.13;102687.38;6216998;23;20067;-64
2021/12/14 11:22:24;;;;;;;50.17;25.58;;;;;;;8.77;98.98;102683.06;6217020;23;20406;-64
2021/12/14 11:24:57;;;;;;;47.65;25.05;;;;;;;8.85;98.97;102680.63;6217384;23;20394;-64
2021/12/14 11:27:27;;;;;;;51.17;24.83;;;;;;;8.93;97.86;102677.34;6217321;23;20068;-64
2021/12/14 11:30:09;;;;;;;48.60;25.27;;;;;;;8.95;97.91;102675.66;6217165;23;20005;-64
2021/12/14 11:32:34;;;;;;;;;;;;;;;8.99;98.72;102677.50;6217817;23;20009;-63
2021/12/14 11:35:01;;;;;;;49.83;26.00;;;;;;;8.93;97.03;102669.53;6217291;23;19929;-63
2021/12/14 11:37:33;;;;;;;48.55;25.35;;;;;;;8.93;97.94;102666.91;6217342;23;20413;-64
2021/12/14 11:40:01;;;;;;;51.10;25.88;;;;;;;8.98;98.39;102667.91;6217148;23;20084;-64
2021/12/14 11:42:28;;;;;;;50.22;25.98;;;;;;;9.02;97.57;102664.47;6219559;23;20024;-63
2021/12/14 11:45:04;;;;;;;53.05;26.25;;;;;;;9.02;97.43;102667.09;6219768;23;20070;-64
2021/12/14 11:47:42;;;;;;;52.75;26.08;;;;;;;9.03;97.72;102670.59;6219033;23;20012;-64
2021/12/14 11:50:27;;;;;;;52.75;26.15;;;;;;;9.11;98.03;102665.56;6219414;23;20096;-64
2021/12/14 11:53:22;;;;;;;51.70;26.38;;;;;;;9.08;97.77;102664.63;6219208;23;20087;-64
2021/12/14 11:55:51;;;;;;;50.42;25.60;;;;;;;9.11;97.10;102666.44;6212190;23;20158;-63
2021/12/14 11:58:24;;;;;;;52.45;26.40;;;;;;;9.08;97.61;102666.34;6219158;23;20150;-64
2021/12/14 12:01:11;;;;;;;48.88;25.83;;;;;;;9.12;98.19;102667.31;6218969;23;20075;-64
2021/12/14 12:03:46;;;;;;;51.45;27.20;;;;;;;9.06;97.58;102660.22;6219570;23;20004;-63
2021/12/14 12:09:32;;;;;;;51.45;28.08;;;;;;;9.13;98.43;102669.09;6219070;23;20104;-63
2021/12/14 12:12:03;;;;;;;51.25;27.48;;;;;;;8.99;97.64;102651.38;6218661;23;20087;-63
2021/12/14 12:14:40;;;;;;;51.33;26.93;;;;;;;9.13;98.14;102671.69;6218876;23;20043;-63